sensor_id;sensor_type;location;lat;lon;timestamp;P1;durP1;ratioP1;P2;durP2;ratioP2
40939;SDS011;26666;50.156;7.700;2023-01-01T00:02:44;21.42;;;9.00;;
40939;SDS011;26666;50.156;7.700;2023-01-01T00:07:46;15.10;;;6.72;;
40939;SDS011;26666;50.156;7.700;2023-01-01T00:12:47;17.08;;;7.43;;
40939;SDS011;26666;50.156;7.700;2023-01-01T00:17:49;18.13;;;5.60;;
40939;SDS011;26666;50.156;7.700;2023-01-01T00:22:50;10.00;;;3.50;;
40939;SDS011;26666;50.156;7.700;2023-01-01T00:27:56;3.78;;;2.05;;
40939;SDS011;26666;50.156;7.700;2023-01-01T00:32:57;2.22;;;1.08;;
40939;SDS011;26666;50.156;7.700;2023-01-01T00:37:59;4.03;;;1.65;;
40939;SDS011;26666;50.156;7.700;2023-01-01T00:43:01;3.97;;;1.15;;
40939;SDS011;26666;50.156;7.700;2023-01-01T00:48:02;8.65;;;0.98;;
40939;SDS011;26666;50.156;7.700;2023-01-01T00:53:04;6.95;;;0.98;;
40939;SDS011;26666;50.156;7.700;2023-01-01T00:58:06;1.88;;;1.00;;
40939;SDS011;26666;50.156;7.700;2023-01-01T01:03:09;1.55;;;1.08;;
40939;SDS011;26666;50.156;7.700;2023-01-01T01:08:11;7.53;;;2.40;;
40939;SDS011;26666;50.156;7.700;2023-01-01T01:13:13;3.40;;;1.90;;
40939;SDS011;26666;50.156;7.700;2023-01-01T01:18:14;5.47;;;1.65;;
40939;SDS011;26666;50.156;7.700;2023-01-01T01:23:16;3.40;;;1.38;;
40939;SDS011;26666;50.156;7.700;2023-01-01T01:28:18;12.98;;;1.38;;
40939;SDS011;26666;50.156;7.700;2023-01-01T01:33:20;6.55;;;2.95;;
40939;SDS011;26666;50.156;7.700;2023-01-01T01:38:22;7.65;;;2.75;;
40939;SDS011;26666;50.156;7.700;2023-01-01T01:48:38;10.05;;;4.03;;
40939;SDS011;26666;50.156;7.700;2023-01-01T01:53:47;13.35;;;3.88;;
40939;SDS011;26666;50.156;7.700;2023-01-01T01:58:52;15.15;;;4.75;;
40939;SDS011;26666;50.156;7.700;2023-01-01T02:03:57;10.60;;;4.43;;
40939;SDS011;26666;50.156;7.700;2023-01-01T02:09:01;13.60;;;4.90;;
40939;SDS011;26666;50.156;7.700;2023-01-01T02:14:05;9.65;;;5.05;;
40939;SDS011;26666;50.156;7.700;2023-01-01T02:24:33;15.20;;;5.40;;
40939;SDS011;26666;50.156;7.700;2023-01-01T02:30:17;11.25;;;5.07;;
40939;SDS011;26666;50.156;7.700;2023-01-01T02:35:16;9.52;;;4.82;;
40939;SDS011;26666;50.156;7.700;2023-01-01T02:40:20;9.90;;;5.07;;
40939;SDS011;26666;50.156;7.700;2023-01-01T02:45:23;12.27;;;5.15;;
40939;SDS011;26666;50.156;7.700;2023-01-01T02:50:26;12.32;;;4.55;;
40939;SDS011;26666;50.156;7.700;2023-01-01T02:55:37;16.98;;;3.88;;
40939;SDS011;26666;50.156;7.700;2023-01-01T03:00:47;9.98;;;4.05;;
40939;SDS011;26666;50.156;7.700;2023-01-01T03:16:11;8.48;;;3.67;;
40939;SDS011;26666;50.156;7.700;2023-01-01T03:21:50;8.40;;;3.47;;
40939;SDS011;26666;50.156;7.700;2023-01-01T03:26:59;10.52;;;2.78;;
40939;SDS011;26666;50.156;7.700;2023-01-01T03:32:04;7.35;;;2.88;;
40939;SDS011;26666;50.156;7.700;2023-01-01T03:37:10;6.45;;;2.63;;
40939;SDS011;26666;50.156;7.700;2023-01-01T03:47:52;5.13;;;2.42;;
40939;SDS011;26666;50.156;7.700;2023-01-01T03:53:02;3.22;;;1.88;;
40939;SDS011;26666;50.156;7.700;2023-01-01T04:08:27;2.10;;;1.27;;
40939;SDS011;26666;50.156;7.700;2023-01-01T04:13:28;2.63;;;1.52;;
40939;SDS011;26666;50.156;7.700;2023-01-01T04:18:30;3.80;;;0.98;;
40939;SDS011;26666;50.156;7.700;2023-01-01T04:23:31;3.10;;;1.13;;
40939;SDS011;26666;50.156;7.700;2023-01-01T04:28:33;3.10;;;1.60;;
40939;SDS011;26666;50.156;7.700;2023-01-01T04:33:34;2.65;;;0.80;;
40939;SDS011;26666;50.156;7.700;2023-01-01T04:38:36;3.35;;;1.08;;
40939;SDS011;26666;50.156;7.700;2023-01-01T04:43:38;0.65;;;0.40;;
40939;SDS011;26666;50.156;7.700;2023-01-01T04:48:40;1.50;;;0.68;;
40939;SDS011;26666;50.156;7.700;2023-01-01T04:53:41;0.80;;;0.50;;
40939;SDS011;26666;50.156;7.700;2023-01-01T04:58:43;2.15;;;1.17;;
40939;SDS011;26666;50.156;7.700;2023-01-01T05:03:46;4.07;;;0.75;;
40939;SDS011;26666;50.156;7.700;2023-01-01T05:08:48;0.45;;;0.30;;
40939;SDS011;26666;50.156;7.700;2023-01-01T05:13:52;6.20;;;0.85;;
40939;SDS011;26666;50.156;7.700;2023-01-01T05:18:54;0.98;;;0.30;;
40939;SDS011;26666;50.156;7.700;2023-01-01T05:23:58;2.42;;;0.57;;
40939;SDS011;26666;50.156;7.700;2023-01-01T05:29:00;6.38;;;0.60;;
40939;SDS011;26666;50.156;7.700;2023-01-01T05:34:03;2.45;;;0.90;;
40939;SDS011;26666;50.156;7.700;2023-01-01T05:39:04;1.20;;;0.28;;
40939;SDS011;26666;50.156;7.700;2023-01-01T05:44:07;3.80;;;0.28;;
40939;SDS011;26666;50.156;7.700;2023-01-01T05:49:09;1.02;;;0.70;;
40939;SDS011;26666;50.156;7.700;2023-01-01T05:54:12;1.35;;;0.47;;
40939;SDS011;26666;50.156;7.700;2023-01-01T05:59:12;3.53;;;0.85;;
40939;SDS011;26666;50.156;7.700;2023-01-01T06:04:14;0.98;;;0.47;;
40939;SDS011;26666;50.156;7.700;2023-01-01T06:09:16;1.80;;;0.75;;
40939;SDS011;26666;50.156;7.700;2023-01-01T06:14:17;1.00;;;0.52;;
40939;SDS011;26666;50.156;7.700;2023-01-01T06:19:19;1.17;;;0.85;;
40939;SDS011;26666;50.156;7.700;2023-01-01T06:24:21;0.88;;;0.60;;
40939;SDS011;26666;50.156;7.700;2023-01-01T06:29:23;6.75;;;1.00;;
40939;SDS011;26666;50.156;7.700;2023-01-01T06:34:24;0.43;;;0.30;;
40939;SDS011;26666;50.156;7.700;2023-01-01T06:39:26;1.88;;;0.82;;
40939;SDS011;26666;50.156;7.700;2023-01-01T06:44:28;5.20;;;1.38;;
40939;SDS011;26666;50.156;7.700;2023-01-01T06:49:29;4.78;;;0.47;;
40939;SDS011;26666;50.156;7.700;2023-01-01T06:54:31;0.80;;;0.50;;
40939;SDS011;26666;50.156;7.700;2023-01-01T06:59:32;1.70;;;0.63;;
40939;SDS011;26666;50.156;7.700;2023-01-01T07:04:34;2.50;;;0.38;;
40939;SDS011;26666;50.156;7.700;2023-01-01T07:09:35;5.38;;;0.30;;
40939;SDS011;26666;50.156;7.700;2023-01-01T07:14:37;1.17;;;0.40;;
40939;SDS011;26666;50.156;7.700;2023-01-01T07:19:38;0.40;;;0.25;;
40939;SDS011;26666;50.156;7.700;2023-01-01T07:24:40;1.75;;;0.30;;
40939;SDS011;26666;50.156;7.700;2023-01-01T07:29:41;2.38;;;0.85;;
40939;SDS011;26666;50.156;7.700;2023-01-01T07:34:43;3.30;;;0.30;;
40939;SDS011;26666;50.156;7.700;2023-01-01T07:39:51;3.42;;;0.93;;
40939;SDS011;26666;50.156;7.700;2023-01-01T07:44:53;2.85;;;0.20;;
40939;SDS011;26666;50.156;7.700;2023-01-01T07:49:54;0.75;;;0.43;;
40939;SDS011;26666;50.156;7.700;2023-01-01T07:54:56;1.75;;;0.28;;
40939;SDS011;26666;50.156;7.700;2023-01-01T07:59:57;0.85;;;0.40;;
40939;SDS011;26666;50.156;7.700;2023-01-01T08:04:59;1.25;;;0.63;;
40939;SDS011;26666;50.156;7.700;2023-01-01T08:10:01;0.50;;;0.20;;
40939;SDS011;26666;50.156;7.700;2023-01-01T08:15:03;16.15;;;1.38;;
40939;SDS011;26666;50.156;7.700;2023-01-01T08:20:06;2.15;;;1.27;;
40939;SDS011;26666;50.156;7.700;2023-01-01T08:25:08;0.88;;;0.60;;
40939;SDS011;26666;50.156;7.700;2023-01-01T08:30:10;1.27;;;0.90;;
40939;SDS011;26666;50.156;7.700;2023-01-01T08:35:14;0.65;;;0.65;;
40939;SDS011;26666;50.156;7.700;2023-01-01T08:40:15;1.45;;;0.70;;
40939;SDS011;26666;50.156;7.700;2023-01-01T08:45:17;1.10;;;0.68;;
40939;SDS011;26666;50.156;7.700;2023-01-01T08:50:18;2.53;;;0.70;;
40939;SDS011;26666;50.156;7.700;2023-01-01T08:55:20;1.80;;;0.35;;
40939;SDS011;26666;50.156;7.700;2023-01-01T09:00:22;6.20;;;1.20;;
40939;SDS011;26666;50.156;7.700;2023-01-01T09:05:23;5.05;;;0.60;;
40939;SDS011;26666;50.156;7.700;2023-01-01T09:10:25;2.10;;;0.80;;
40939;SDS011;26666;50.156;7.700;2023-01-01T09:15:26;5.85;;;0.85;;
40939;SDS011;26666;50.156;7.700;2023-01-01T09:20:28;6.15;;;0.70;;
40939;SDS011;26666;50.156;7.700;2023-01-01T09:25:30;4.78;;;0.60;;
40939;SDS011;26666;50.156;7.700;2023-01-01T09:30:33;2.58;;;1.20;;
40939;SDS011;26666;50.156;7.700;2023-01-01T09:35:35;1.98;;;1.02;;
40939;SDS011;26666;50.156;7.700;2023-01-01T09:46:04;2.97;;;0.60;;
40939;SDS011;26666;50.156;7.700;2023-01-01T09:51:11;1.45;;;0.57;;
40939;SDS011;26666;50.156;7.700;2023-01-01T09:56:17;1.58;;;1.13;;
40939;SDS011;26666;50.156;7.700;2023-01-01T10:12:53;6.43;;;0.50;;
40939;SDS011;26666;50.156;7.700;2023-01-01T10:18:10;3.20;;;0.77;;
40939;SDS011;26666;50.156;7.700;2023-01-01T10:23:19;2.78;;;0.77;;
40939;SDS011;26666;50.156;7.700;2023-01-01T10:33:35;3.03;;;0.63;;
40939;SDS011;26666;50.156;7.700;2023-01-01T10:38:37;4.70;;;1.30;;
40939;SDS011;26666;50.156;7.700;2023-01-01T10:43:39;1.60;;;1.05;;
40939;SDS011;26666;50.156;7.700;2023-01-01T10:48:40;1.27;;;0.47;;
40939;SDS011;26666;50.156;7.700;2023-01-01T10:54:04;8.90;;;0.70;;
40939;SDS011;26666;50.156;7.700;2023-01-01T10:59:36;1.52;;;0.45;;
40939;SDS011;26666;50.156;7.700;2023-01-01T11:04:39;5.32;;;0.55;;
40939;SDS011;26666;50.156;7.700;2023-01-01T11:09:41;4.30;;;0.75;;
40939;SDS011;26666;50.156;7.700;2023-01-01T11:15:03;1.75;;;0.45;;
40939;SDS011;26666;50.156;7.700;2023-01-01T11:20:05;2.20;;;0.30;;
40939;SDS011;26666;50.156;7.700;2023-01-01T11:30:25;1.92;;;0.40;;
40939;SDS011;26666;50.156;7.700;2023-01-01T11:35:32;1.75;;;0.55;;
40939;SDS011;26666;50.156;7.700;2023-01-01T11:40:52;2.67;;;0.65;;
40939;SDS011;26666;50.156;7.700;2023-01-01T11:45:56;1.63;;;0.32;;
40939;SDS011;26666;50.156;7.700;2023-01-01T11:50:59;5.70;;;0.65;;
40939;SDS011;26666;50.156;7.700;2023-01-01T11:56:05;7.10;;;0.35;;
40939;SDS011;26666;50.156;7.700;2023-01-01T12:01:24;2.60;;;0.75;;
40939;SDS011;26666;50.156;7.700;2023-01-01T12:06:30;1.20;;;0.57;;
40939;SDS011;26666;50.156;7.700;2023-01-01T12:11:42;1.98;;;0.20;;
40939;SDS011;26666;50.156;7.700;2023-01-01T12:21:56;8.77;;;0.40;;
40939;SDS011;26666;50.156;7.700;2023-01-01T12:27:06;1.50;;;0.40;;
40939;SDS011;26666;50.156;7.700;2023-01-01T12:58:38;1.05;;;0.90;;
40939;SDS011;26666;50.156;7.700;2023-01-01T13:09:17;6.38;;;0.98;;
40939;SDS011;26666;50.156;7.700;2023-01-01T13:14:21;3.33;;;1.00;;
40939;SDS011;26666;50.156;7.700;2023-01-01T13:24:32;1.15;;;0.55;;
40939;SDS011;26666;50.156;7.700;2023-01-01T13:29:34;1.45;;;0.70;;
40939;SDS011;26666;50.156;7.700;2023-01-01T13:34:59;2.50;;;0.30;;
40939;SDS011;26666;50.156;7.700;2023-01-01T13:40:03;3.95;;;0.75;;
40939;SDS011;26666;50.156;7.700;2023-01-01T13:45:33;1.95;;;1.33;;
40939;SDS011;26666;50.156;7.700;2023-01-01T14:11:42;1.73;;;0.68;;
40939;SDS011;26666;50.156;7.700;2023-01-01T14:16:43;1.20;;;0.57;;
40939;SDS011;26666;50.156;7.700;2023-01-01T14:21:45;5.40;;;0.65;;
40939;SDS011;26666;50.156;7.700;2023-01-01T14:26:47;2.22;;;0.50;;
40939;SDS011;26666;50.156;7.700;2023-01-01T14:31:49;2.40;;;0.45;;
40939;SDS011;26666;50.156;7.700;2023-01-01T14:36:52;5.60;;;0.70;;
40939;SDS011;26666;50.156;7.700;2023-01-01T14:42:02;2.97;;;0.80;;
40939;SDS011;26666;50.156;7.700;2023-01-01T14:47:18;2.22;;;0.80;;
40939;SDS011;26666;50.156;7.700;2023-01-01T14:52:26;7.50;;;0.93;;
40939;SDS011;26666;50.156;7.700;2023-01-01T14:57:33;6.13;;;0.60;;
40939;SDS011;26666;50.156;7.700;2023-01-01T15:02:37;4.85;;;0.38;;
40939;SDS011;26666;50.156;7.700;2023-01-01T15:07:40;3.67;;;0.57;;
40939;SDS011;26666;50.156;7.700;2023-01-01T15:12:41;5.50;;;0.82;;
40939;SDS011;26666;50.156;7.700;2023-01-01T15:17:44;1.15;;;0.80;;
40939;SDS011;26666;50.156;7.700;2023-01-01T15:22:48;8.50;;;0.50;;
40939;SDS011;26666;50.156;7.700;2023-01-01T15:27:51;7.28;;;0.90;;
40939;SDS011;26666;50.156;7.700;2023-01-01T15:32:55;3.92;;;0.80;;
40939;SDS011;26666;50.156;7.700;2023-01-01T15:38:16;4.40;;;0.80;;
40939;SDS011;26666;50.156;7.700;2023-01-01T15:43:25;11.23;;;1.10;;
40939;SDS011;26666;50.156;7.700;2023-01-01T15:48:32;5.10;;;0.88;;
40939;SDS011;26666;50.156;7.700;2023-01-01T15:53:39;4.97;;;1.02;;
40939;SDS011;26666;50.156;7.700;2023-01-01T15:58:54;3.53;;;0.60;;
40939;SDS011;26666;50.156;7.700;2023-01-01T16:04:20;4.25;;;0.98;;
40939;SDS011;26666;50.156;7.700;2023-01-01T16:09:29;4.03;;;0.68;;
40939;SDS011;26666;50.156;7.700;2023-01-01T16:14:31;3.00;;;0.88;;
40939;SDS011;26666;50.156;7.700;2023-01-01T16:19:33;9.90;;;1.70;;
40939;SDS011;26666;50.156;7.700;2023-01-01T16:24:35;7.15;;;1.73;;
40939;SDS011;26666;50.156;7.700;2023-01-01T16:29:36;7.47;;;1.25;;
40939;SDS011;26666;50.156;7.700;2023-01-01T16:34:39;2.58;;;1.05;;
40939;SDS011;26666;50.156;7.700;2023-01-01T16:39:41;5.20;;;1.73;;
40939;SDS011;26666;50.156;7.700;2023-01-01T16:44:42;7.32;;;1.20;;
40939;SDS011;26666;50.156;7.700;2023-01-01T16:49:44;3.88;;;1.02;;
40939;SDS011;26666;50.156;7.700;2023-01-01T16:54:46;6.28;;;1.17;;
40939;SDS011;26666;50.156;7.700;2023-01-01T16:59:48;2.63;;;0.88;;
40939;SDS011;26666;50.156;7.700;2023-01-01T17:04:49;3.97;;;1.23;;
40939;SDS011;26666;50.156;7.700;2023-01-01T17:09:51;3.70;;;1.05;;
40939;SDS011;26666;50.156;7.700;2023-01-01T17:14:52;2.13;;;0.90;;
40939;SDS011;26666;50.156;7.700;2023-01-01T17:19:54;1.88;;;1.15;;
40939;SDS011;26666;50.156;7.700;2023-01-01T17:24:55;5.97;;;1.40;;
40939;SDS011;26666;50.156;7.700;2023-01-01T17:29:57;5.28;;;1.30;;
40939;SDS011;26666;50.156;7.700;2023-01-01T17:35:01;4.63;;;1.15;;
40939;SDS011;26666;50.156;7.700;2023-01-01T17:40:03;2.38;;;0.93;;
40939;SDS011;26666;50.156;7.700;2023-01-01T17:45:05;7.00;;;1.20;;
40939;SDS011;26666;50.156;7.700;2023-01-01T17:50:08;3.30;;;1.02;;
40939;SDS011;26666;50.156;7.700;2023-01-01T17:55:09;5.68;;;1.17;;
40939;SDS011;26666;50.156;7.700;2023-01-01T18:00:11;10.07;;;1.00;;
40939;SDS011;26666;50.156;7.700;2023-01-01T18:05:13;8.65;;;1.25;;
40939;SDS011;26666;50.156;7.700;2023-01-01T18:10:14;1.55;;;1.40;;
40939;SDS011;26666;50.156;7.700;2023-01-01T18:15:16;4.95;;;0.82;;
40939;SDS011;26666;50.156;7.700;2023-01-01T18:20:17;1.02;;;0.68;;
40939;SDS011;26666;50.156;7.700;2023-01-01T18:25:19;4.38;;;1.00;;
40939;SDS011;26666;50.156;7.700;2023-01-01T18:30:21;4.05;;;0.65;;
40939;SDS011;26666;50.156;7.700;2023-01-01T18:35:23;2.80;;;0.70;;
40939;SDS011;26666;50.156;7.700;2023-01-01T18:40:25;5.03;;;0.80;;
40939;SDS011;26666;50.156;7.700;2023-01-01T18:45:30;6.15;;;0.85;;
40939;SDS011;26666;50.156;7.700;2023-01-01T18:50:34;5.38;;;0.93;;
40939;SDS011;26666;50.156;7.700;2023-01-01T18:55:36;4.90;;;1.10;;
40939;SDS011;26666;50.156;7.700;2023-01-01T19:00:37;4.93;;;0.90;;
40939;SDS011;26666;50.156;7.700;2023-01-01T19:05:39;3.00;;;0.60;;
40939;SDS011;26666;50.156;7.700;2023-01-01T19:50:48;4.15;;;0.55;;
40939;SDS011;26666;50.156;7.700;2023-01-01T19:55:50;12.57;;;1.13;;
40939;SDS011;26666;50.156;7.700;2023-01-01T20:00:51;2.15;;;0.38;;
40939;SDS011;26666;50.156;7.700;2023-01-01T20:05:53;5.05;;;1.42;;
40939;SDS011;26666;50.156;7.700;2023-01-01T20:10:55;5.18;;;1.33;;
40939;SDS011;26666;50.156;7.700;2023-01-01T20:15:56;1.30;;;0.80;;
40939;SDS011;26666;50.156;7.700;2023-01-01T20:20:58;18.65;;;0.90;;
40939;SDS011;26666;50.156;7.700;2023-01-01T20:26:00;4.45;;;0.50;;
40939;SDS011;26666;50.156;7.700;2023-01-01T20:31:01;4.72;;;0.82;;
40939;SDS011;26666;50.156;7.700;2023-01-01T20:36:03;3.85;;;1.02;;
40939;SDS011;26666;50.156;7.700;2023-01-01T20:41:04;10.43;;;1.70;;
40939;SDS011;26666;50.156;7.700;2023-01-01T20:46:06;4.50;;;1.10;;
40939;SDS011;26666;50.156;7.700;2023-01-01T20:51:08;7.40;;;1.23;;
40939;SDS011;26666;50.156;7.700;2023-01-01T20:56:09;7.55;;;0.70;;
40939;SDS011;26666;50.156;7.700;2023-01-01T21:01:11;5.90;;;0.90;;
40939;SDS011;26666;50.156;7.700;2023-01-01T21:06:13;5.05;;;1.10;;
40939;SDS011;26666;50.156;7.700;2023-01-01T21:11:23;10.60;;;1.42;;
40939;SDS011;26666;50.156;7.700;2023-01-01T21:16:32;6.15;;;1.48;;
40939;SDS011;26666;50.156;7.700;2023-01-01T21:21:51;9.07;;;1.45;;
40939;SDS011;26666;50.156;7.700;2023-01-01T21:26:59;1.35;;;0.40;;
40939;SDS011;26666;50.156;7.700;2023-01-01T21:37:37;7.00;;;0.93;;
40939;SDS011;26666;50.156;7.700;2023-01-01T21:42:41;3.97;;;1.00;;
40939;SDS011;26666;50.156;7.700;2023-01-01T21:47:43;6.03;;;1.33;;
40939;SDS011;26666;50.156;7.700;2023-01-01T21:52:45;0.57;;;0.57;;
40939;SDS011;26666;50.156;7.700;2023-01-01T21:57:47;7.05;;;0.95;;
40939;SDS011;26666;50.156;7.700;2023-01-01T22:02:49;4.68;;;1.45;;
40939;SDS011;26666;50.156;7.700;2023-01-01T22:07:51;5.13;;;0.77;;
40939;SDS011;26666;50.156;7.700;2023-01-01T22:13:00;1.20;;;0.30;;
40939;SDS011;26666;50.156;7.700;2023-01-01T22:28:30;2.10;;;0.82;;
40939;SDS011;26666;50.156;7.700;2023-01-01T22:33:43;4.10;;;0.90;;
40939;SDS011;26666;50.156;7.700;2023-01-01T22:38:46;3.60;;;0.82;;
40939;SDS011;26666;50.156;7.700;2023-01-01T22:43:51;5.95;;;1.00;;
40939;SDS011;26666;50.156;7.700;2023-01-01T22:48:59;8.68;;;0.70;;
40939;SDS011;26666;50.156;7.700;2023-01-01T22:54:02;0.82;;;0.32;;
40939;SDS011;26666;50.156;7.700;2023-01-01T22:59:04;2.67;;;1.15;;
40939;SDS011;26666;50.156;7.700;2023-01-01T23:04:06;2.83;;;0.88;;
40939;SDS011;26666;50.156;7.700;2023-01-01T23:09:07;1.73;;;0.50;;
40939;SDS011;26666;50.156;7.700;2023-01-01T23:14:09;3.75;;;0.40;;
40939;SDS011;26666;50.156;7.700;2023-01-01T23:19:11;10.30;;;0.77;;
40939;SDS011;26666;50.156;7.700;2023-01-01T23:24:13;2.50;;;0.68;;
40939;SDS011;26666;50.156;7.700;2023-01-01T23:29:17;8.80;;;0.75;;
40939;SDS011;26666;50.156;7.700;2023-01-01T23:34:20;3.80;;;0.73;;
40939;SDS011;26666;50.156;7.700;2023-01-01T23:39:22;2.50;;;0.47;;
40939;SDS011;26666;50.156;7.700;2023-01-01T23:44:23;4.47;;;0.50;;
40939;SDS011;26666;50.156;7.700;2023-01-01T23:49:25;0.77;;;0.40;;
40939;SDS011;26666;50.156;7.700;2023-01-01T23:54:27;4.30;;;0.95;;
40939;SDS011;26666;50.156;7.700;2023-01-01T23:59:29;9.23;;;1.05;;
